Time;durP1;ratioP1;P1;durP2;ratioP2;P2;SDS_P1;SDS_P2;PMS_P1;PMS_P2;Temp;Humidity;BMP_temperature;BMP_pressure;BME280_temperature;BME280_humidity;BME280_pressure;Samples;Min_cycle;Max_cycle;Signal;HPM_P1;HPM_P2
2022/07/07 00:01:07;;;;;;;;;;;;;;;16.72;42.78;98470.06;4874356;29;20008;-76
2022/07/07 00:03:35;;;;;;;;;;;;;;;16.73;42.99;98468.13;4875724;29;19928;-76
2022/07/07 00:06:07;;;;;;;;;;;;;;;16.72;42.98;98469.22;4870024;29;19943;-76
2022/07/07 00:09:00;;;;;;;;;;;;;;;16.73;42.75;98474.41;4874298;29;20310;-76
2022/07/07 00:11:28;;;;;;;;;;;;;;;16.71;42.91;98473.91;4875918;29;19974;-76
2022/07/07 00:13:57;;;;;;;;;;;;;;;16.63;43.27;98476.75;4875729;29;19931;-76
2022/07/07 00:16:25;;;;;;;;;;;;;;;16.53;43.37;98466.19;4875425;29;20053;-76
2022/07/07 00:18:55;;;;;;;;;;;;;;;16.53;43.54;98464.22;4855411;29;19932;-76
2022/07/07 00:21:24;;;;;;;;;;;;;;;16.50;43.59;98465.69;4875215;29;19928;-76
2022/07/07 00:23:53;;;;;;;;;;;;;;;16.55;43.43;98470.16;4872266;29;19927;-76
2022/07/07 00:26:21;;;;;;;;;;;;;;;16.52;43.70;98470.88;4873441;29;19932;-76
2022/07/07 00:28:50;;;;;;;;;;;;;;;16.55;43.56;98464.69;4874491;29;20293;-76
2022/07/07 00:31:18;;;;;;;;;;;;;;;16.56;43.61;98469.03;4889927;29;20331;-77
2022/07/07 00:33:46;;;;;;;;;;;;;;;16.62;43.74;98470.44;4875043;29;19935;-77
2022/07/07 00:36:14;;;;;;;;;;;;;;;16.55;43.69;98464.69;4873958;29;19934;-77
2022/07/07 00:38:44;;;;;;;;;;;;;;;16.44;43.74;98469.00;4874377;29;20112;-78
2022/07/07 00:41:12;;;;;;;;;;;;;;;16.34;43.97;98475.69;4874056;29;20307;-77
2022/07/07 00:43:41;;;;;;;;;;;;;;;16.36;43.96;98473.41;4873558;29;19934;-77
2022/07/07 00:46:09;;;;;;;;;;;;;;;16.36;44.13;98467.13;4874394;29;20038;-77
2022/07/07 00:48:39;;;;;;;;;;;;;;;16.32;44.31;98466.19;4874616;29;19932;-76
2022/07/07 00:51:10;;;;;;;;;;;;;;;16.30;44.32;98466.53;4874015;29;19938;-76
2022/07/07 00:53:38;;;;;;;;;;;;;;;16.27;44.51;98464.47;4874724;29;19979;-76
2022/07/07 00:56:11;;;;;;;;;;;;;;;16.28;44.32;98455.09;4875087;29;19964;-76
2022/07/07 00:58:39;;;;;;;;;;;;;;;16.24;44.58;98459.63;4889193;29;19934;-77
2022/07/07 01:01:08;;;;;;;;;;;;;;;16.22;44.45;98464.66;4873393;29;19931;-76
2022/07/07 01:03:36;;;;;;;;;;;;;;;16.22;44.53;98456.44;4871724;29;19984;-76
2022/07/07 01:06:06;;;;;;;;;;;;;;;16.19;44.60;98457.09;4873430;29;19928;-77
2022/07/07 01:08:59;;;;;;;;;;;;;;;16.20;44.44;98456.78;4887426;29;19934;-77
2022/07/07 01:11:29;;;;;;;;;;;;;;;16.20;44.50;98453.22;4875569;29;19934;-78
2022/07/07 01:13:57;;;;;;;;;;;;;;;16.13;44.59;98447.47;4872957;29;19938;-78
2022/07/07 01:16:25;;;;;;;;;;;;;;;16.16;44.65;98449.56;4874841;29;20375;-78
2022/07/07 01:18:53;;;;;;;;;;;;;;;16.12;44.58;98440.38;4892407;29;20606;-77
2022/07/07 01:21:22;;;;;;;;;;;;;;;16.12;44.73;98446.66;4876810;29;19928;-77
2022/07/07 01:23:52;;;;;;;;;;;;;;;16.18;44.88;98445.31;4872559;29;19953;-77
2022/07/07 01:26:21;;;;;;;;;;;;;;;16.27;44.91;98449.94;4873974;29;19972;-77
2022/07/07 01:28:49;;;;;;;;;;;;;;;16.33;44.75;98440.38;4873825;29;19990;-77
2022/07/07 01:31:18;;;;;;;;;;;;;;;16.36;44.71;98435.03;4873518;29;19999;-77
2022/07/07 01:33:46;;;;;;;;;;;;;;;16.29;44.91;98434.75;4888706;29;19934;-77
2022/07/07 01:36:14;;;;;;;;;;;;;;;16.48;44.67;98431.53;4867302;29;19958;-77
2022/07/07 01:38:44;;;;;;;;;;;;;;;16.52;44.45;98424.25;4874426;29;20319;-77
2022/07/07 01:41:13;;;;;;;;;;;;;;;16.58;44.49;98425.63;4869930;29;19934;-77
2022/07/07 01:43:41;;;;;;;;;;;;;;;16.57;43.76;98410.31;4870952;29;19928;-77
2022/07/07 01:46:10;;;;;;;;;;;;;;;16.53;43.86;98409.38;4873545;29;19932;-77
2022/07/07 01:48:38;;;;;;;;;;;;;;;16.52;43.64;98399.56;4872779;29;19932;-77
2022/07/07 01:51:09;;;;;;;;;;;;;;;16.53;43.86;98401.16;4885648;29;19964;-77
2022/07/07 01:53:37;;;;;;;;;;;;;;;16.58;43.54;98395.44;4875647;29;19928;-76
2022/07/07 01:56:07;;;;;;;;;;;;;;;16.63;43.00;98397.19;4873268;29;19942;-77
2022/07/07 01:58:37;;;;;;;;;;;;;;;16.61;43.15;98402.19;4872983;29;19932;-77
2022/07/07 02:01:07;;;;;;;;;;;;;;;16.60;43.19;98395.91;4873153;29;19934;-77
2022/07/07 02:03:36;;;;;;;;;;;;;;;16.62;42.99;98399.13;4877234;29;20323;-77
2022/07/07 02:06:06;;;;;;;;;;;;;;;16.63;43.17;98402.66;4872249;29;19929;-76
2022/07/07 02:08:59;;;;;;;;;;;;;;;16.62;43.18;98399.13;4873961;29;19934;-77
2022/07/07 02:11:28;;;;;;;;;;;;;;;16.63;43.35;98406.22;4871957;29;19934;-77
2022/07/07 02:13:58;;;;;;;;;;;;;;;16.67;43.51;98406.31;4856282;29;19935;-77
2022/07/07 02:16:27;;;;;;;;;;;;;;;16.64;43.51;98413.28;4877838;29;19928;-77
2022/07/07 02:19:05;;;;;;;;;;;;;;;16.60;43.89;98406.88;4876058;29;19928;-76
2022/07/07 02:21:34;;;;;;;;;;;;;;;16.56;43.94;98419.66;4875608;29;19991;-79
2022/07/07 02:24:06;;;;;;;;;;;;;;;16.56;44.06;98411.44;4875135;29;19928;-79
2022/07/07 02:26:35;;;;;;;;;;;;;;;16.49;44.34;98413.94;4876137;29;19975;-80
2022/07/07 02:29:04;;;;;;;;;;;;;;;16.45;44.43;98422.03;4879812;29;20343;-77
2022/07/07 02:31:33;;;;;;;;;;;;;;;16.44;44.43;98414.94;4890888;29;19935;-77
2022/07/07 02:34:01;;;;;;;;;;;;;;;16.43;44.68;98415.28;4876752;29;20332;-78
2022/07/07 02:36:29;;;;;;;;;;;;;;;16.43;44.80;98412.53;4890770;29;19928;-77
2022/07/07 02:38:57;;;;;;;;;;;;;;;16.49;44.88;98413.94;4872718;29;20341;-78
2022/07/07 02:41:25;;;;;;;;;;;;;;;16.54;44.85;98410.97;4875449;29;19947;-77
2022/07/07 02:43:53;;;;;;;;;;;;;;;16.47;44.91;98410.72;4874921;29;19927;-77
2022/07/07 02:46:23;;;;;;;;;;;;;;;16.47;45.02;98411.53;4876000;29;20016;-77
2022/07/07 02:48:51;;;;;;;;;;;;;;;16.49;45.00;98411.97;4859980;29;20392;-77
2022/07/07 02:51:20;;;;;;;;;;;;;;;16.49;44.98;98409.25;4875751;29;20401;-77
2022/07/07 02:53:49;;;;;;;;;;;;;;;16.43;45.12;98409.81;4875764;29;19932;-77
2022/07/07 02:56:17;;;;;;;;;;;;;;;16.46;45.17;98406.41;4876726;29;20023;-77
2022/07/07 02:58:46;;;;;;;;;;;;;;;16.42;45.43;98402.72;4876590;29;19928;-78
2022/07/07 03:01:14;;;;;;;;;;;;;;;16.47;45.32;98392.34;4871865;29;19954;-76
2022/07/07 03:03:44;;;;;;;;;;;;;;;16.43;45.24;98394.16;4875170;29;19932;-78
2022/07/07 03:09:05;;;;;;;;;;;;;;;16.37;45.58;98400.19;4876144;29;19928;-78
2022/07/07 03:11:33;;;;;;;;;;;;;;;16.43;45.58;98416.09;4892055;29;20476;-78
2022/07/07 03:14:01;;;;;;;;;;;;;;;16.32;45.93;98416.84;4870416;29;19927;-77
2022/07/07 03:16:29;;;;;;;;;;;;;;;16.29;46.15;98412.03;4885260;29;19940;-77
2022/07/07 03:19:00;;;;;;;;;;;;;;;16.28;46.15;98399.44;4875505;29;20412;-78
2022/07/07 03:21:28;;;;;;;;;;;;;;;16.30;46.22;98406.22;4874339;29;19932;-78
2022/07/07 03:23:57;;;;;;;;;;;;;;;16.34;46.04;98411.81;4874801;29;20417;-78
2022/07/07 03:26:25;;;;;;;;;;;;;;;16.32;46.24;98409.41;4874699;29;20305;-78
2022/07/07 03:28:53;;;;;;;;;;;;;;;16.33;46.56;98408.28;4876807;29;20335;-77
2022/07/07 03:31:22;;;;;;;;;;;;;;;16.33;46.39;98402.00;4876643;29;19938;-77
2022/07/07 03:33:50;;;;;;;;;;;;;;;16.35;46.44;98392.31;4878956;29;20226;-77
2022/07/07 03:36:20;;;;;;;;;;;;;;;16.34;46.64;98403.59;4878321;29;19934;-78
2022/07/07 03:38:48;;;;;;;;;;;;;;;16.39;46.39;98403.38;4876124;29;19927;-78
2022/07/07 03:41:16;;;;;;;;;;;;;;;16.28;46.49;98394.78;4884959;29;20411;-77
2022/07/07 03:43:44;;;;;;;;;;;;;;;16.35;46.27;98388.72;4871305;29;19935;-78
2022/07/07 03:46:13;;;;;;;;;;;;;;;16.32;46.37;98384.75;4870253;29;20095;-77
2022/07/07 03:48:41;;;;;;;;;;;;;;;16.32;46.38;98384.75;4841581;29;19938;-77
2022/07/07 03:51:09;;;;;;;;;;;;;;;16.33;46.28;98380.06;4872511;29;20037;-77
2022/07/07 03:53:39;;;;;;;;;;;;;;;16.31;46.40;98387.81;4871885;29;19928;-77
2022/07/07 03:56:07;;;;;;;;;;;;;;;16.32;46.37;98383.94;4869279;29;19928;-76
2022/07/07 03:58:35;;;;;;;;;;;;;;;16.31;46.58;98387.81;4878381;29;20243;-77
2022/07/07 04:01:08;;;;;;;;;;;;;;;16.33;46.28;98380.84;4869627;29;19928;-77
2022/07/07 04:03:37;;;;;;;;;;;;;;;16.28;46.44;98377.53;4871093;29;19928;-78
2022/07/07 04:06:31;;;;;;;;;;;;;;;16.29;46.55;98384.59;4871552;29;20034;-78
2022/07/07 04:09:00;;;;;;;;;;;;;;;16.30;46.71;98377.97;4867781;29;19932;-78
2022/07/07 04:11:28;;;;;;;;;;;;;;;16.36;46.69;98377.44;4870231;29;19971;-79
2022/07/07 04:13:57;;;;;;;;;;;;;;;16.47;46.21;98373.13;4873822;29;19928;-78
2022/07/07 04:16:25;;;;;;;;;;;;;;;16.46;46.39;98374.28;4869748;29;19932;-78
2022/07/07 04:18:54;;;;;;;;;;;;;;;16.45;46.14;98367.16;4874720;29;20000;-78
2022/07/07 04:21:23;;;;;;;;;;;;;;;16.42;46.39;98378.84;4860688;29;20063;-78
2022/07/07 04:23:51;;;;;;;;;;;;;;;16.43;46.51;98374.16;4873705;29;20373;-77
2022/07/07 04:26:22;;;;;;;;;;;;;;;16.42;46.51;98367.06;4889371;29;20320;-77
2022/07/07 04:28:50;;;;;;;;;;;;;;;16.38;46.56;98379.84;4875169;29;19938;-78
2022/07/07 04:31:18;;;;;;;;;;;;;;;16.37;46.76;98381.78;4869741;29;20009;-78
2022/07/07 04:33:48;;;;;;;;;;;;;;;16.46;46.69;98374.28;4875061;29;19934;-78
2022/07/07 04:36:17;;;;;;;;;;;;;;;16.43;46.69;98368.66;4871035;29;19928;-78
2022/07/07 04:38:45;;;;;;;;;;;;;;;16.43;46.82;98374.94;4867520;29;19934;-84
2022/07/07 04:41:13;;;;;;;;;;;;;;;16.51;47.02;98375.97;4879420;29;19934;-80
2022/07/07 04:43:42;;;;;;;;;;;;;;;16.41;47.07;98382.72;4876131;29;19928;-80
2022/07/07 04:46:11;;;;;;;;;;;;;;;16.40;46.97;98377.56;4874089;29;19986;-82
2022/07/07 04:48:39;;;;;;;;;;;;;;;16.39;47.28;98373.22;4876670;29;19927;-82
2022/07/07 04:51:07;;;;;;;;;;;;;;;16.43;47.26;98379.63;4875479;29;19928;-84
2022/07/07 04:53:35;;;;;;;;;;;;;;;16.41;47.35;98371.75;4870653;29;19942;-84
2022/07/07 04:56:07;;;;;;;;;;;;;;;16.32;47.29;98364.75;4874715;29;19928;-83
2022/07/07 04:58:35;;;;;;;;;;;;;;;16.34;47.47;98359.72;4870906;29;19934;-79
2022/07/07 05:01:08;;;;;;;;;;;;;;;16.44;47.26;98364.78;4870794;29;19936;-79
2022/07/07 05:03:37;;;;;;;;;;;;;;;16.45;47.11;98358.16;4855144;29;20426;-78
2022/07/07 05:06:07;;;;;;;;;;;;;;;16.49;47.28;98361.81;4872820;29;19934;-78
2022/07/07 05:09:01;;;;;;;;;;;;;;;16.50;47.44;98366.16;4873012;29;19975;-78
2022/07/07 05:11:29;;;;;;;;;;;;;;;16.51;47.08;98365.00;4875173;29;20592;-84
2022/07/07 05:13:57;;;;;;;;;;;;;;;16.55;47.32;98356.91;4878677;29;20029;-78
2022/07/07 05:16:27;;;;;;;;;;;;;;;16.53;47.18;98354.53;4872528;29;19928;-77
2022/07/07 05:18:55;;;;;;;;;;;;;;;16.62;47.24;98351.66;4870957;29;19934;-80
2022/07/07 05:21:23;;;;;;;;;;;;;;;16.63;47.11;98350.53;4872451;29;19927;-78
2022/07/07 05:23:52;;;;;;;;;;;;;;;16.64;47.20;98349.41;4870677;29;19950;-79
2022/07/07 05:26:20;;;;;;;;;;;;;;;16.66;47.27;98349.84;4872844;29;19932;-75
2022/07/07 05:28:49;;;;;;;;;;;;;;;16.61;47.47;98348.13;4867481;29;19932;-78
2022/07/07 05:31:16;;;;;;;;;;;;;;;16.66;47.78;98341.63;4873571;29;19936;-77
2022/07/07 05:33:46;;;;;;;;;;;;;;;16.74;48.01;98355.28;4876784;29;19951;-82
2022/07/07 05:36:15;;;;;;;;;;;;;;;16.84;47.08;98356.78;4874148;29;20405;-79
2022/07/07 05:38:45;;;;;;;;;;;;;;;16.93;46.97;98364.88;4877304;29;19942;-79
2022/07/07 05:41:13;;;;;;;;;;;;;;;16.86;46.68;98359.19;4874721;29;19936;-79
2022/07/07 05:43:41;;;;;;;;;;;;;;;16.86;46.84;98359.19;4876478;29;19957;-79
2022/07/07 05:46:09;;;;;;;;;;;;;;;16.81;46.78;98360.19;4877230;29;20395;-78
2022/07/07 05:48:39;;;;;;;;;;;;;;;16.72;47.03;98360.31;4876058;29;19936;-79
2022/07/07 05:51:09;;;;;;;;;;;;;;;16.68;47.18;98358.56;4876774;29;20409;-79
2022/07/07 05:53:38;;;;;;;;;;;;;;;16.56;47.18;98356.56;4873465;29;19955;-79
2022/07/07 05:56:09;;;;;;;;;;;;;;;16.58;47.20;98351.56;4876533;29;19958;-82
2022/07/07 05:58:37;;;;;;;;;;;;;;;16.68;47.22;98351.13;4877531;29;20299;-81
2022/07/07 06:01:08;;;;;;;;;;;;;;;16.68;47.09;98359.34;4862010;29;19928;-85
2022/07/07 06:04:00;;;;;;;;;;;;;;;16.74;46.90;98351.75;4858828;29;19934;-82
2022/07/07 06:06:30;;;;;;;;;;;;;;;16.77;46.70;98351.03;4871200;29;19928;-88
2022/07/07 06:08:59;;;;;;;;;;;;;;;16.81;46.69;98351.16;4889631;29;19928;-85
2022/07/07 06:11:27;;;;;;;;;;;;;;;16.82;46.39;98358.25;4875965;29;19980;-79
2022/07/07 06:13:56;;;;;;;;;;;;;;;16.79;46.56;98361.69;4871285;29;19927;-80
2022/07/07 06:19:19;;;;;;;;;;;;;;;16.82;46.34;98353.56;5063534;27;2410189;-57
2022/07/07 06:22:12;;;;;;;;;;;;;;;16.79;46.48;98350.72;5137655;27;20396;-56
2022/07/07 06:24:41;;;;;;;;;;;;;;;16.81;46.39;98341.00;5142688;27;20294;-56
2022/07/07 06:27:09;;;;;;;;;;;;;;;16.84;46.54;98345.81;5143673;27;19933;-56
2022/07/07 06:29:37;;;;;;;;;;;;;;;16.88;46.20;98349.44;5135933;27;20279;-56
2022/07/07 06:32:07;;;;;;;;;;;;;;;16.91;46.40;98350.72;5136322;27;20623;-56
2022/07/07 06:34:36;;;;;;;;;;;;;;;16.86;46.06;98359.19;5145390;27;20264;-57
2022/07/07 06:37:04;;;;;;;;;;;;;;;16.82;46.32;98348.06;5148207;27;19923;-56
2022/07/07 06:39:32;;;;;;;;;;;;;;;16.90;46.94;98343.63;5146512;27;20311;-56
2022/07/07 06:42:00;;;;;;;;;;;;;;;16.93;46.98;98340.19;5145292;27;19942;-56
2022/07/07 06:44:33;;;;;;;;;;;;;;;17.05;46.69;98345.69;5123402;27;20286;-56
2022/07/07 06:47:02;;;;;;;;;;;;;;;16.97;46.24;98344.66;5141987;27;19995;-56
2022/07/07 06:49:30;;;;;;;;;;;;;;;17.07;46.43;98342.59;5146752;27;19919;-56
2022/07/07 06:51:59;;;;;;;;;;;;;;;17.06;46.23;98343.75;5143534;27;19919;-56
2022/07/07 06:54:27;;;;;;;;;;;;;;;17.23;45.81;98338.81;5147383;27;19919;-56
2022/07/07 06:56:55;;;;;;;;;;;;;;;17.25;45.76;98336.50;5143173;27;19945;-56
2022/07/07 06:59:23;;;;;;;;;;;;;;;17.27;45.61;98342.47;5140097;27;19968;-55
2022/07/07 07:01:51;;;;;;;;;;;;;;;17.25;45.74;98347.50;5133786;27;19938;-56
2022/07/07 07:04:20;;;;;;;;;;;;;;;17.27;45.73;98355.41;5136519;27;19974;-56
2022/07/07 07:06:48;;;;;;;;;;;;;;;17.24;45.48;98345.09;5141688;27;19919;-56
2022/07/07 07:09:18;;;;;;;;;;;;;;;17.23;45.70;98351.75;5139386;27;19919;-59
2022/07/07 07:11:48;;;;;;;;;;;;;;;18.17;44.49;98345.94;5138973;27;19920;-56
2022/07/07 07:14:42;;;;;;;;;;;;;;;17.60;44.61;98338.75;5105784;27;20359;-56
2022/07/07 07:17:10;;;;;;;;;;;;;;;17.38;45.17;98336.53;5142449;27;19931;-56
2022/07/07 07:19:38;;;;;;;;;;;;;;;17.31;45.28;98336.28;5141888;27;19925;-58
2022/07/07 07:22:06;;;;;;;;;;;;;;;17.33;45.80;98334.00;5140985;27;19946;-56
2022/07/07 07:24:36;;;;;;;;;;;;;;;17.26;49.59;98342.84;5140802;27;19939;-59
2022/07/07 07:27:05;;;;;;;;;;;;;;;16.99;52.88;98358.03;5140632;27;19945;-58
2022/07/07 07:29:33;;;;;;;;;;;;;;;16.66;54.13;98361.63;5132465;27;19923;-59
2022/07/07 07:32:02;;;;;;;;;;;;;;;16.50;55.29;98360.69;5127691;27;20266;-59
2022/07/07 07:34:30;;;;;;;;;;;;;;;16.44;57.12;98362.84;5122364;27;19926;-59
2022/07/07 07:36:58;;;;;;;;;;;;;;;16.26;56.78;98360.63;5128373;27;19926;-59
2022/07/07 07:39:26;;;;;;;;;;;;;;;16.20;58.10;98366.31;5127396;27;19948;-58
2022/07/07 07:41:55;;;;;;;;;;;;;;;16.12;58.69;98369.91;5131486;27;20003;-59
2022/07/07 07:47:06;;;;;;;;;;;;;;;16.05;59.11;98368.88;5126698;27;19919;-57
2022/07/07 07:49:34;;;;;;;;;;;;;;;16.02;60.75;98375.81;5128262;27;19978;-59
2022/07/07 07:52:02;;;;;;;;;;;;;;;16.06;59.92;98371.28;5127863;27;19920;-58
2022/07/07 07:54:34;;;;;;;;;;;;;;;16.05;59.01;98369.66;5126113;27;19931;-58
2022/07/07 07:57:03;;;;;;;;;;;;;;;16.02;59.04;98370.34;5128478;27;19926;-59
2022/07/07 07:59:31;;;;;;;;;;;;;;;16.05;59.62;98371.63;5126624;27;19924;-59
2022/07/07 08:01:59;;;;;;;;;;;;;;;16.07;58.81;98370.13;5128273;27;19920;-58
2022/07/07 08:04:28;;;;;;;;;;;;;;;16.12;58.56;98371.88;5126031;27;20316;-58
2022/07/07 08:06:56;;;;;;;;;;;;;;;16.19;61.10;98370.19;5127535;27;19919;-59
2022/07/07 08:09:24;;;;;;;;;;;;;;;16.26;59.88;98369.63;5127226;27;19923;-58
2022/07/07 08:11:53;;;;;;;;;;;;;;;16.23;58.75;98370.31;5131070;27;19941;-59
2022/07/07 08:14:26;;;;;;;;;;;;;;;16.26;58.21;98366.09;5129097;27;19930;-59
2022/07/07 08:16:54;;;;;;;;;;;;;;;16.23;58.98;98373.84;5128233;27;20362;-59
2022/07/07 08:19:23;;;;;;;;;;;;;;;16.19;58.87;98378.41;5124750;27;19923;-57
2022/07/07 08:21:51;;;;;;;;;;;;;;;16.16;60.98;98375.53;5129793;27;19963;-59
2022/07/07 08:24:21;;;;;;;;;;;;;;;16.08;60.43;98366.25;5126871;27;19923;-57
2022/07/07 08:26:49;;;;;;;;;;;;;;;16.11;60.13;98367.53;5124094;27;19941;-59
2022/07/07 08:29:18;;;;;;;;;;;;;;;16.07;61.94;98375.59;5105192;27;19936;-59
2022/07/07 08:31:48;;;;;;;;;;;;;;;16.01;61.94;98368.72;5125209;27;19929;-59
2022/07/07 08:34:16;;;;;;;;;;;;;;;15.98;63.67;98369.41;5122083;27;19924;-58
2022/07/07 08:36:44;;;;;;;;;;;;;;;16.03;63.82;98374.66;5123689;27;19920;-59
2022/07/07 08:39:13;;;;;;;;;;;;;;;16.00;61.64;98367.13;5125741;27;20389;-59
2022/07/07 08:41:42;;;;;;;;;;;;;;;16.14;62.19;98356.69;5122866;27;20234;-59
2022/07/07 08:44:10;;;;;;;;;;;;;;;16.12;61.92;98353.47;5127537;27;19925;-59
2022/07/07 08:46:38;;;;;;;;;;;;;;;16.16;63.86;98346.19;5127867;27;19942;-59
2022/07/07 08:49:08;;;;;;;;;;;;;;;16.08;63.76;98352.53;5127089;27;20243;-59
2022/07/07 08:51:37;;;;;;;;;;;;;;;15.98;64.34;98352.97;5108083;27;19924;-55
2022/07/07 08:54:05;;;;;;;;;;;;;;;16.02;64.71;98356.63;5121181;27;19924;-58
2022/07/07 08:56:33;;;;;;;;;;;;;;;15.98;63.43;98352.97;5125803;27;20595;-58
2022/07/07 08:59:01;;;;;;;;;;;;;;;16.03;66.58;98360.16;5121306;27;19923;-58
2022/07/07 09:01:31;;;;;;;;;;;;;;;16.02;65.01;98359.38;5126553;27;19926;-58
2022/07/07 09:03:59;;;;;;;;;;;;;;;16.04;65.56;98356.31;5126177;27;20426;-58
2022/07/07 09:06:29;;;;;;;;;;;;;;;16.03;65.14;98354.69;5133866;27;19930;-56
2022/07/07 09:08:58;;;;;;;;;;;;;;;16.10;66.07;98355.75;5126334;27;19945;-58
2022/07/07 09:11:26;;;;;;;;;;;;;;;16.05;67.19;98363.38;5124068;27;19941;-58
2022/07/07 09:13:58;;;;;;;;;;;;;;;16.03;64.44;98360.16;5126312;27;19942;-59
2022/07/07 09:16:26;;;;;;;;;;;;;;;16.06;64.70;98348.53;5126580;27;20007;-59
2022/07/07 09:18:54;;;;;;;;;;;;;;;16.14;64.47;98344.91;5126072;27;20266;-58
2022/07/07 09:21:26;;;;;;;;;;;;;;;16.11;63.97;98348.34;5126471;27;19931;-56
2022/07/07 09:23:57;;;;;;;;;;;;;;;16.12;64.63;98348.00;5124360;27;20238;-58
2022/07/07 09:26:35;;;;;;;;;;;;;;;16.14;64.01;98355.88;5122727;27;19948;-58
2022/07/07 09:29:04;;;;;;;;;;;;;;;16.33;63.16;98355.38;5116310;27;19923;-58
2022/07/07 09:31:51;;;;;;;;;;;;;;;16.27;63.20;98352.03;5122321;27;19930;-58
2022/07/07 09:34:20;;;;;;;;;;;;;;;16.27;63.69;98354.78;5123690;27;20219;-57
2022/07/07 09:39:42;;;;;;;;;;;;;;;16.22;63.97;98353.06;5132723;27;20354;-57
2022/07/07 09:42:31;;;;;;;;;;;;;;;16.23;61.32;98349.16;5123448;27;19923;-58
2022/07/07 09:45:01;;;;;;;;;;;;;;;16.29;64.17;98359.94;5124452;27;20319;-59
2022/07/07 09:47:29;;;;;;;;;;;;;;;16.30;63.90;98350.56;5126642;27;19919;-59
2022/07/07 09:50:02;;;;;;;;;;;;;;;16.31;62.80;98352.97;5126345;27;19919;-58
2022/07/07 09:52:31;;;;;;;;;;;;;;;16.20;62.47;98354.53;5125813;27;19920;-57
2022/07/07 09:55:00;;;;;;;;;;;;;;;16.26;63.74;98352.41;5125509;27;19946;-58
2022/07/07 09:57:28;;;;;;;;;;;;;;;16.18;62.90;98360.34;5125716;27;20006;-58
2022/07/07 09:59:56;;;;;;;;;;;;;;;16.36;61.68;98357.47;5125741;27;20331;-57
2022/07/07 10:02:55;;;;;;;;;;;;;;;16.24;63.52;98367.25;5125456;27;19919;-58
2022/07/07 10:05:24;;;;;;;;;;;;;;;16.43;63.60;98360.44;5125214;27;19970;-57
2022/07/07 10:07:54;;;;;;;;;;;;;;;16.65;63.41;98351.00;5126252;27;20358;-57
2022/07/07 10:10:23;;;;;;;;;;;;;;;16.59;64.30;98346.88;5126382;27;19930;-57
2022/07/07 10:12:53;;;;;;;;;;;;;;;16.49;64.71;98359.06;5126016;27;19999;-58
2022/07/07 10:15:22;;;;;;;;;;;;;;;16.46;64.23;98359.78;5138093;27;19926;-58
2022/07/07 10:17:50;;;;;;;;;;;;;;;16.50;64.69;98363.41;5136906;27;20394;-57
2022/07/07 10:20:18;;;;;;;;;;;;;;;16.37;64.65;98361.78;5135869;27;19919;-58
2022/07/07 10:22:47;;;;;;;;;;;;;;;16.40;64.34;98363.84;5125174;27;19927;-57
2022/07/07 10:25:15;;;;;;;;;;;;;;;16.49;65.04;98357.13;5125182;27;19920;-57
2022/07/07 10:27:44;;;;;;;;;;;;;;;16.55;64.03;98360.47;5125662;27;20123;-58
2022/07/07 10:30:28;;;;;;;;;;;;;;;16.75;64.17;98361.56;5120884;28;20279;-57
2022/07/07 10:32:57;;;;;;;;;;;;;;;16.88;64.02;98352.19;5125498;27;20323;-57
2022/07/07 10:35:25;;;;;;;;;;;;;;;16.93;63.63;98360.19;5126389;27;19938;-57
2022/07/07 10:37:54;;;;;;;;;;;;;;;17.23;60.29;98363.53;5126949;27;19928;-56
2022/07/07 10:40:23;;;;;;;;;;;;;;;17.01;61.64;98355.75;5125684;27;20389;-55
2022/07/07 10:43:11;;;;;;;;;;;;;;;16.94;62.49;98359.09;5125137;27;19951;-58
2022/07/07 10:45:43;;;;;;;;;;;;;;;17.00;62.63;98357.72;5117820;28;20258;-57
2022/07/07 10:48:14;;;;;;;;;;;;;;;16.97;63.36;98360.31;5120560;27;19919;-57
2022/07/07 10:50:42;;;;;;;;;;;;;;;16.99;63.42;98353.38;5120474;27;20767;-57
2022/07/07 10:53:15;;;;;;;;;;;;;;;17.17;62.00;98358.63;5125505;27;19920;-58
2022/07/07 10:55:54;;;;;;;;;;;;;;;17.43;61.23;98355.50;5122475;28;20026;-57
2022/07/07 10:58:40;;;;;;;;;;;;;;;17.37;62.14;98345.91;5123650;27;19919;-58
2022/07/07 11:01:10;;;;;;;;;;;;;;;17.36;61.63;98349.78;5129923;27;19923;-58
2022/07/07 11:03:39;;;;;;;;;;;;;;;17.24;62.42;98351.41;5121400;27;19926;-58
2022/07/07 11:09:01;;;;;;;;;;;;;;;17.17;62.70;98353.94;5128885;27;20289;-57
2022/07/07 11:11:30;;;;;;;;;;;;;;;17.17;61.82;98353.13;5123835;27;19923;-57
2022/07/07 11:14:08;;;;;;;;;;;;;;;17.23;63.04;98349.81;5130879;27;20366;-57
2022/07/07 11:16:39;;;;;;;;;;;;;;;17.63;58.77;98343.59;5129333;27;19929;-57
2022/07/07 11:19:35;;;;;;;;;;;;;;;17.98;57.00;98337.53;5108867;28;20297;-57
2022/07/07 11:22:03;;;;;;;;;;;;;;;17.94;60.67;98342.13;5107155;27;19928;-57
2022/07/07 11:24:31;;;;;;;;;;;;;;;17.84;61.08;98339.88;5107494;28;19928;-58
2022/07/07 11:27:00;;;;;;;;;;;;;;;17.85;60.86;98344.25;5109355;27;20455;-58
2022/07/07 11:29:28;;;;;;;;;;;;;;;17.85;59.85;98345.03;5108543;28;20317;-57
2022/07/07 11:32:05;;;;;;;;;;;;;;;17.87;60.34;98341.94;5107654;28;19919;-58
2022/07/07 11:34:40;;;;;;;;;;;;;;;18.37;56.07;98340.56;5106041;28;19930;-58
2022/07/07 11:37:17;;;;;;;;;;;;;;;18.20;59.15;98345.22;5105739;27;19920;-56
2022/07/07 11:39:45;;;;;;;;;;;;;;;18.31;57.92;98340.00;5101154;28;19924;-56
2022/07/07 11:42:13;;;;;;;;;;;;;;;18.31;59.46;98335.31;5093731;28;19931;-57
2022/07/07 11:44:41;;;;;;;;;;;;;;;18.26;60.14;98330.06;5091898;27;19995;-58
2022/07/07 11:47:10;;;;;;;;;;;;;;;18.21;61.17;98329.53;5098955;28;20324;-58
2022/07/07 11:49:39;;;;;;;;;;;;;;;18.19;61.91;98331.84;5103702;27;19938;-58
2022/07/07 11:52:08;;;;;;;;;;;;;;;18.18;60.26;98331.03;5105554;28;19964;-58
2022/07/07 11:54:42;;;;;;;;;;;;;;;18.06;60.18;98333.84;5094405;28;19976;-59
2022/07/07 11:57:10;;;;;;;;;;;;;;;17.80;61.20;98337.03;5103057;27;19924;-55
2022/07/07 11:59:38;;;;;;;;;;;;;;;17.66;60.86;98333.81;5102602;28;19919;-58
2022/07/07 12:02:17;;;;;;;;;;;;;;;17.63;61.14;98338.09;5108799;27;19923;-58
2022/07/07 12:04:45;;;;;;;;;;;;;;;17.83;60.22;98335.53;5109210;27;19930;-57
2022/07/07 12:07:13;;;;;;;;;;;;;;;17.92;59.35;98338.94;5111022;27;19934;-58
2022/07/07 12:09:45;;;;;;;;;;;;;;;17.80;59.81;98340.56;5098359;28;19947;-58
2022/07/07 12:12:16;;;;;;;;;;;;;;;17.69;61.78;98341.38;5098657;27;19931;-58
2022/07/07 12:14:45;;;;;;;;;;;;;;;17.67;61.33;98335.41;5107168;28;19935;-58
2022/07/07 12:17:19;;;;;;;;;;;;;;;17.75;60.32;98331.78;5115000;27;19954;-58
2022/07/07 12:19:50;;;;;;;;;;;;;;;17.69;60.75;98342.19;5108173;27;20049;-58
2022/07/07 12:22:32;;;;;;;;;;;;;;;17.67;61.86;98338.97;5106317;27;20391;-58
2022/07/07 12:25:00;;;;;;;;;;;;;;;17.61;62.19;98343.09;5134039;27;19919;-58
2022/07/07 12:27:55;;;;;;;;;;;;;;;17.60;61.98;98343.47;5128463;27;19919;-58
2022/07/07 12:30:26;;;;;;;;;;;;;;;17.59;62.04;98342.66;5130028;27;19979;-58
2022/07/07 12:32:54;;;;;;;;;;;;;;;17.55;61.71;98353.53;5126550;27;19949;-57
2022/07/07 12:35:42;;;;;;;;;;;;;;;17.65;62.42;98352.25;5124050;27;19919;-56
2022/07/07 12:38:10;;;;;;;;;;;;;;;17.52;64.05;98348.75;5133156;27;19919;-55
2022/07/07 12:40:41;;;;;;;;;;;;;;;17.57;64.72;98353.19;5121383;27;19926;-57
2022/07/07 12:43:09;;;;;;;;;;;;;;;17.53;65.50;98364.09;5118825;27;20256;-59
2022/07/07 12:45:38;;;;;;;;;;;;;;;17.46;66.61;98361.09;5110328;27;19919;-58
2022/07/07 12:48:15;;;;;;;;;;;;;;;17.29;67.59;98364.91;5128304;27;19923;-58
2022/07/07 12:50:45;;;;;;;;;;;;;;;16.99;67.63;98378.06;5125331;27;20353;-59
2022/07/07 12:53:13;;;;;;;;;;;;;;;16.98;70.10;98373.69;5125087;27;20200;-57
2022/07/07 12:55:41;;;;;;;;;;;;;;;16.91;70.24;98373.47;5124333;27;19942;-63
2022/07/07 12:58:24;;;;;;;;;;;;;;;16.77;71.06;98373.00;5118598;27;19925;-62
2022/07/07 13:00:57;;;;;;;;;;;;;;;16.74;71.70;98374.47;5115593;27;20371;-58
2022/07/07 13:03:28;;;;;;;;;;;;;;;16.85;72.27;98368.56;5125165;27;19923;-62
2022/07/07 13:06:46;;;;;;;;;;;;;;;16.75;73.12;98376.06;5118272;27;19919;-64
2022/07/07 13:09:18;;;;;;;;;;;;;;;16.70;72.27;98373.53;5122562;27;20003;-60
2022/07/07 13:12:02;;;;;;;;;;;;;;;16.73;72.64;98370.16;5118242;27;19939;-63
2022/07/07 13:14:31;;;;;;;;;;;;;;;16.84;73.19;98370.50;5126116;27;19923;-63
2022/07/07 13:16:59;;;;;;;;;;;;;;;16.88;72.43;98362.38;5126757;27;20381;-63
2022/07/07 13:19:30;;;;;;;;;;;;;;;16.89;72.46;98367.53;5119477;27;20551;-63